createdAt,value
2022-08-26T00:01:57.147Z,14.98
2022-08-26T00:04:26.358Z,17.10
2022-08-26T00:06:55.658Z,16.52
2022-08-26T00:09:25.022Z,13.80
2022-08-26T00:11:53.616Z,15.30
2022-08-26T00:14:21.469Z,13.63
2022-08-26T00:16:49.263Z,15.90
2022-08-26T00:19:18.328Z,13.23
2022-08-26T00:21:48.592Z,14.60
2022-08-26T00:24:16.978Z,13.00
2022-08-26T00:26:45.111Z,16.92
2022-08-26T00:29:12.993Z,18.75
2022-08-26T00:31:41.263Z,15.98
2022-08-26T00:34:11.128Z,13.27
2022-08-26T00:36:40.792Z,15.45
2022-08-26T00:39:08.832Z,14.25
2022-08-26T00:41:38.539Z,13.60
2022-08-26T00:44:07.028Z,13.93
2022-08-26T00:46:36.494Z,16.13
2022-08-26T00:49:12.103Z,15.82
2022-08-26T00:51:56.695Z,16.90
2022-08-26T00:54:27.084Z,19.35
2022-08-26T00:57:08.685Z,14.90
2022-08-26T00:59:46.673Z,16.00
2022-08-26T01:02:20.081Z,16.85
2022-08-26T01:04:48.659Z,16.02
2022-08-26T01:07:22.659Z,18.33
2022-08-26T01:09:51.122Z,15.43
2022-08-26T01:12:22.176Z,14.93
2022-08-26T01:14:50.490Z,16.92
2022-08-26T01:17:18.776Z,18.67
2022-08-26T01:19:48.486Z,15.25
2022-08-26T01:22:28.727Z,18.63
2022-08-26T01:24:58.392Z,15.25
2022-08-26T01:27:27.613Z,17.98
2022-08-26T01:30:01.469Z,12.95
2022-08-26T01:32:30.656Z,16.25
2022-08-26T01:35:00.308Z,17.83
2022-08-26T01:37:30.429Z,14.82
2022-08-26T01:39:58.734Z,14.65
2022-08-26T01:42:28.574Z,14.82
2022-08-26T01:45:07.174Z,15.23
2022-08-26T01:47:36.947Z,15.95
2022-08-26T01:50:08.475Z,16.40
2022-08-26T01:52:38.999Z,15.70
2022-08-26T01:55:07.528Z,16.27
2022-08-26T01:57:35.773Z,15.43
2022-08-26T02:00:10.930Z,15.68
2022-08-26T02:02:43.498Z,17.25
2022-08-26T02:05:12.970Z,15.15
2022-08-26T02:07:41.564Z,14.38
2022-08-26T02:10:10.170Z,15.00
2022-08-26T02:12:38.142Z,17.30
2022-08-26T02:15:08.422Z,19.05
2022-08-26T02:17:43.196Z,14.40
2022-08-26T02:20:16.681Z,17.50
2022-08-26T02:22:46.404Z,18.25
2022-08-26T02:25:35.740Z,15.93
2022-08-26T02:28:03.776Z,14.48
2022-08-26T02:30:33.570Z,16.77
2022-08-26T02:33:04.206Z,16.10
2022-08-26T02:35:33.037Z,15.85
2022-08-26T02:38:01.471Z,18.02
2022-08-26T02:40:31.302Z,15.85
2022-08-26T02:42:59.366Z,15.38
2022-08-26T02:45:29.286Z,16.80
2022-08-26T02:47:59.654Z,16.48
2022-08-26T02:50:28.185Z,15.85
2022-08-26T02:52:56.519Z,14.80
2022-08-26T02:55:24.698Z,15.60
2022-08-26T02:57:52.708Z,16.17
2022-08-26T03:00:21.133Z,16.88
2022-08-26T03:02:49.105Z,16.30
2022-08-26T03:05:18.194Z,15.38
2022-08-26T03:07:46.347Z,18.50
2022-08-26T03:10:14.366Z,14.38
2022-08-26T03:12:43.190Z,20.55
2022-08-26T03:15:18.384Z,16.20
2022-08-26T03:17:50.352Z,17.00
2022-08-26T03:20:18.884Z,16.38
2022-08-26T03:22:46.909Z,15.77
2022-08-26T03:25:16.217Z,13.90
2022-08-26T03:27:44.503Z,15.25
2022-08-26T03:30:31.965Z,14.10
2022-08-26T03:33:01.131Z,16.83
2022-08-26T03:35:29.366Z,17.10
2022-08-26T03:37:57.487Z,18.55
2022-08-26T03:40:25.575Z,14.55
2022-08-26T03:42:57.069Z,15.85
2022-08-26T03:45:25.062Z,16.17
2022-08-26T03:47:53.092Z,20.00
2022-08-26T03:50:22.923Z,14.88
2022-08-26T03:52:53.151Z,15.75
2022-08-26T03:55:23.915Z,14.18
2022-08-26T03:57:52.264Z,15.23
2022-08-26T04:00:20.727Z,15.63
2022-08-26T04:02:51.383Z,15.63
2022-08-26T04:05:22.847Z,17.75
2022-08-26T04:07:51.248Z,16.52
2022-08-26T04:10:22.321Z,16.88
2022-08-26T04:12:56.533Z,14.98
2022-08-26T04:15:27.503Z,16.48
2022-08-26T04:17:55.926Z,13.57
2022-08-26T04:20:23.976Z,15.68
2022-08-26T04:22:52.003Z,17.65
2022-08-26T04:25:20.470Z,13.20
2022-08-26T04:27:48.683Z,15.00
2022-08-26T04:30:18.669Z,17.38
2022-08-26T04:32:46.648Z,18.30
2022-08-26T04:35:14.599Z,14.68
2022-08-26T04:37:44.235Z,13.68
2022-08-26T04:40:12.486Z,15.27
2022-08-26T04:42:40.486Z,14.93
2022-08-26T04:45:10.327Z,15.15
2022-08-26T04:47:39.571Z,16.25
2022-08-26T04:50:07.928Z,15.48
2022-08-26T04:52:36.966Z,15.27
2022-08-26T04:55:06.678Z,16.20
2022-08-26T04:57:36.799Z,17.15
2022-08-26T05:00:06.287Z,15.65
2022-08-26T05:02:34.618Z,14.77
2022-08-26T05:05:02.961Z,16.52
2022-08-26T05:07:31.906Z,16.35
2022-08-26T05:10:00.476Z,13.95
2022-08-26T05:12:29.836Z,13.82
2022-08-26T05:14:57.734Z,12.85
2022-08-26T05:17:26.049Z,17.55
2022-08-26T05:19:54.269Z,16.58
2022-08-26T05:22:22.252Z,15.32
2022-08-26T05:24:50.833Z,15.45
2022-08-26T05:27:18.728Z,14.43
2022-08-26T05:29:48.503Z,16.95
2022-08-26T05:32:22.498Z,16.85
2022-08-26T05:34:53.968Z,16.30
2022-08-26T05:37:22.399Z,16.20
2022-08-26T05:39:51.170Z,16.38
2022-08-26T05:42:20.333Z,17.25
2022-08-26T05:44:55.487Z,15.48
2022-08-26T05:47:24.576Z,18.23
2022-08-26T05:49:55.684Z,16.45
2022-08-26T05:52:26.002Z,15.90
2022-08-26T05:54:54.576Z,20.17
2022-08-26T05:57:22.699Z,16.58
2022-08-26T05:59:52.023Z,20.08
2022-08-26T06:02:20.697Z,16.27
2022-08-26T06:04:48.780Z,15.80
2022-08-26T06:07:17.208Z,15.48
2022-08-26T06:09:46.395Z,17.50
2022-08-26T06:12:14.309Z,17.17
2022-08-26T06:14:43.089Z,17.98
2022-08-26T06:17:12.350Z,17.95
2022-08-26T06:19:41.491Z,17.13
2022-08-26T06:22:29.329Z,17.52
2022-08-26T06:25:15.791Z,18.95
2022-08-26T06:27:43.819Z,16.88
2022-08-26T06:30:12.057Z,18.38
2022-08-26T06:32:40.538Z,19.17
2022-08-26T06:35:12.164Z,22.42
2022-08-26T06:37:41.369Z,20.42
2022-08-26T06:40:09.725Z,17.75
2022-08-26T06:42:39.745Z,18.02
2022-08-26T06:45:07.978Z,19.67
2022-08-26T06:47:37.148Z,21.50
2022-08-26T06:50:05.164Z,23.55
2022-08-26T06:52:33.177Z,17.95
2022-08-26T06:55:02.704Z,21.88
2022-08-26T06:57:33.135Z,18.02
2022-08-26T07:00:12.736Z,17.52
2022-08-26T07:02:40.937Z,20.33
2022-08-26T07:05:15.004Z,22.98
2022-08-26T07:07:43.125Z,23.42
2022-08-26T07:10:11.657Z,23.80
2022-08-26T07:12:39.612Z,19.30
2022-08-26T07:15:09.395Z,23.15
2022-08-26T07:17:37.366Z,21.70
2022-08-26T07:20:07.812Z,20.33
2022-08-26T07:22:37.505Z,21.80
2022-08-26T07:25:09.665Z,22.10
2022-08-26T07:27:37.952Z,22.42
2022-08-26T07:30:07.024Z,18.95
2022-08-26T07:32:35.227Z,18.02
2022-08-26T07:35:03.129Z,17.70
2022-08-26T07:37:31.054Z,18.65
2022-08-26T07:40:09.585Z,20.65
2022-08-26T07:42:37.634Z,18.02
2022-08-26T07:45:06.184Z,23.48
2022-08-26T07:47:34.247Z,21.77
2022-08-26T07:50:02.255Z,18.92
2022-08-26T07:52:31.329Z,21.25
2022-08-26T07:55:00.334Z,20.70
2022-08-26T07:57:29.174Z,19.50
2022-08-26T07:59:57.126Z,17.95
2022-08-26T08:02:25.776Z,19.42
2022-08-26T08:04:54.915Z,22.95
2022-08-26T08:07:38.634Z,22.55
2022-08-26T08:10:13.815Z,22.40
2022-08-26T08:12:42.360Z,19.63
2022-08-26T08:15:13.956Z,18.35
2022-08-26T08:17:43.798Z,18.73
2022-08-26T08:20:13.190Z,17.15
2022-08-26T08:22:41.297Z,15.65
2022-08-26T08:25:10.526Z,16.13
2022-08-26T08:27:40.631Z,18.08
2022-08-26T08:30:09.238Z,17.33
2022-08-26T08:32:44.095Z,19.63
2022-08-26T08:35:13.780Z,17.35
2022-08-26T08:37:42.244Z,18.77
2022-08-26T08:40:11.768Z,18.80
2022-08-26T08:42:46.851Z,15.95
2022-08-26T08:45:35.920Z,15.10
2022-08-26T08:48:27.844Z,23.90
2022-08-26T08:51:09.325Z,18.05
2022-08-26T08:53:41.922Z,21.20
2022-08-26T08:56:17.634Z,15.73
2022-08-26T08:58:51.876Z,13.50
2022-08-26T09:01:29.584Z,17.98
2022-08-26T09:04:00.484Z,19.17
2022-08-26T09:06:29.497Z,21.33
2022-08-26T09:08:57.565Z,18.23
2022-08-26T09:11:25.894Z,17.42
2022-08-26T09:13:55.186Z,16.00
2022-08-26T09:16:26.269Z,16.88
2022-08-26T09:19:12.711Z,19.33
2022-08-26T09:21:40.820Z,17.20
2022-08-26T09:24:11.069Z,18.10
2022-08-26T09:26:42.196Z,17.40
2022-08-26T09:29:30.499Z,18.65
2022-08-26T09:32:19.593Z,18.08
2022-08-26T09:35:00.394Z,21.70
2022-08-26T09:40:23.777Z,15.02
2022-08-26T09:43:22.609Z,17.58
2022-08-26T09:45:59.499Z,17.05
2022-08-26T09:48:37.996Z,15.95
2022-08-26T09:51:23.954Z,14.18
2022-08-26T09:53:53.892Z,17.98
2022-08-26T09:56:25.765Z,17.42
2022-08-26T09:58:56.871Z,16.50
2022-08-26T10:01:24.893Z,15.82
2022-08-26T10:03:53.211Z,15.07
2022-08-26T10:06:24.440Z,16.10
2022-08-26T10:09:00.090Z,16.15
2022-08-26T10:11:28.187Z,12.90
2022-08-26T10:13:58.156Z,13.38
2022-08-26T10:16:33.645Z,14.75
2022-08-26T10:19:03.153Z,14.65
2022-08-26T10:21:39.904Z,13.52
2022-08-26T10:24:11.336Z,16.45
2022-08-26T10:26:51.877Z,12.82
2022-08-26T10:29:25.732Z,14.60
2022-08-26T10:32:03.447Z,12.88
2022-08-26T10:34:32.992Z,12.60
2022-08-26T10:37:14.629Z,10.65
2022-08-26T10:39:57.277Z,16.42
2022-08-26T10:42:33.718Z,11.10
2022-08-26T10:45:06.092Z,17.42
2022-08-26T10:47:44.575Z,13.45
2022-08-26T10:50:13.081Z,13.20
2022-08-26T10:52:49.103Z,14.70
2022-08-26T10:55:24.183Z,13.40
2022-08-26T10:57:58.493Z,15.68
2022-08-26T11:00:49.814Z,13.48
2022-08-26T11:03:36.565Z,11.50
2022-08-26T11:06:20.497Z,14.13
2022-08-26T11:08:49.640Z,13.07
2022-08-26T11:11:38.508Z,13.63
2022-08-26T11:14:07.234Z,13.40
2022-08-26T11:16:54.880Z,12.88
2022-08-26T11:19:45.575Z,15.27
2022-08-26T11:22:36.468Z,13.88
2022-08-26T11:25:15.055Z,14.05
2022-08-26T11:27:43.003Z,15.25
2022-08-26T11:30:14.234Z,14.38
2022-08-26T11:32:42.168Z,13.23
2022-08-26T11:35:23.651Z,15.68
2022-08-26T11:37:54.705Z,12.45
2022-08-26T11:40:28.642Z,14.10
2022-08-26T11:42:59.768Z,12.93
2022-08-26T11:45:41.406Z,15.13
2022-08-26T11:48:24.225Z,13.75
2022-08-26T11:50:56.437Z,11.50
2022-08-26T11:53:26.154Z,15.50
2022-08-26T11:55:55.106Z,14.27
2022-08-26T11:58:24.069Z,15.00
2022-08-26T12:01:01.241Z,12.52
2022-08-26T12:03:41.137Z,13.60
2022-08-26T12:06:17.574Z,18.90
2022-08-26T12:08:46.116Z,12.95
2022-08-26T12:11:25.743Z,13.23
2022-08-26T12:13:57.901Z,13.57
2022-08-26T12:16:27.467Z,11.25
2022-08-26T12:18:56.296Z,13.90
2022-08-26T12:21:26.350Z,13.45
2022-08-26T12:23:55.536Z,15.23
2022-08-26T12:26:23.427Z,12.32
2022-08-26T12:28:53.972Z,15.07
2022-08-26T12:31:27.614Z,13.70
2022-08-26T12:33:56.170Z,12.95
2022-08-26T12:36:28.526Z,16.05
2022-08-26T12:38:58.454Z,12.48
2022-08-26T12:41:47.509Z,11.88
2022-08-26T12:44:34.037Z,16.05
2022-08-26T12:47:12.854Z,14.43
2022-08-26T12:49:42.618Z,12.95
2022-08-26T12:52:31.031Z,11.35
2022-08-26T12:55:29.313Z,13.07
2022-08-26T12:58:15.939Z,11.95
2022-08-26T13:00:45.472Z,13.63
2022-08-26T13:03:31.947Z,12.05
2022-08-26T13:06:33.039Z,11.15
2022-08-26T13:09:10.120Z,11.68
2022-08-26T13:11:41.158Z,9.43
2022-08-26T13:14:11.144Z,9.20
2022-08-26T13:16:40.065Z,10.13
2022-08-26T13:19:12.387Z,10.55
2022-08-26T13:21:47.985Z,12.23
2022-08-26T13:24:21.218Z,11.63
2022-08-26T13:26:49.715Z,11.48
2022-08-26T13:29:18.266Z,11.68
2022-08-26T13:31:46.825Z,11.73
2022-08-26T13:34:16.478Z,12.02
2022-08-26T13:36:45.497Z,10.80
2022-08-26T13:39:13.947Z,12.00
2022-08-26T13:41:43.531Z,11.75
2022-08-26T13:44:11.960Z,11.65
2022-08-26T13:46:40.568Z,10.90
2022-08-26T13:49:09.009Z,9.77
2022-08-26T13:51:38.001Z,10.90
2022-08-26T13:54:06.634Z,9.90
2022-08-26T13:56:35.061Z,8.77
2022-08-26T13:59:03.438Z,9.75
2022-08-26T14:01:32.652Z,11.48
2022-08-26T14:04:00.847Z,9.90
2022-08-26T14:06:28.878Z,11.15
2022-08-26T14:08:56.880Z,11.77
2022-08-26T14:11:25.301Z,10.77
2022-08-26T14:13:56.252Z,11.95
2022-08-26T14:16:31.776Z,15.13
2022-08-26T14:19:02.970Z,10.80
2022-08-26T14:21:35.262Z,11.45
2022-08-26T14:24:03.512Z,12.48
2022-08-26T14:26:31.479Z,10.18
2022-08-26T14:29:00.097Z,11.13
2022-08-26T14:31:29.594Z,12.05
2022-08-26T14:34:02.523Z,12.95
2022-08-26T14:36:34.445Z,13.18
2022-08-26T14:39:04.581Z,11.15
2022-08-26T14:41:33.368Z,11.05
2022-08-26T14:44:03.153Z,15.50
2022-08-26T14:46:32.718Z,11.20
2022-08-26T14:49:03.614Z,13.73
2022-08-26T14:51:33.192Z,13.68
2022-08-26T14:54:13.140Z,13.88
2022-08-26T14:56:43.590Z,11.95
2022-08-26T14:59:12.468Z,11.00
2022-08-26T15:01:40.548Z,14.82
2022-08-26T15:04:08.598Z,13.35
2022-08-26T15:06:37.037Z,14.77
2022-08-26T15:09:05.568Z,15.07
2022-08-26T15:11:33.663Z,14.10
2022-08-26T15:14:01.611Z,12.05
2022-08-26T15:16:30.022Z,11.85
2022-08-26T15:18:58.267Z,11.23
2022-08-26T15:21:27.343Z,12.88
2022-08-26T15:23:55.707Z,12.57
2022-08-26T15:26:24.545Z,13.77
2022-08-26T15:28:52.527Z,13.60
2022-08-26T15:31:20.889Z,10.75
2022-08-26T15:33:49.502Z,10.70
2022-08-26T15:36:17.545Z,12.65
2022-08-26T15:38:45.518Z,11.10
2022-08-26T15:41:14.612Z,12.73
2022-08-26T15:43:42.545Z,12.80
2022-08-26T15:46:14.014Z,12.40
2022-08-26T15:48:42.010Z,17.63
2022-08-26T15:51:19.522Z,10.93
2022-08-26T15:53:47.700Z,11.55
2022-08-26T15:56:15.864Z,13.25
2022-08-26T15:58:43.967Z,11.85
2022-08-26T16:01:12.833Z,12.52
2022-08-26T16:03:46.500Z,13.82
2022-08-26T16:06:16.031Z,12.85
2022-08-26T16:08:45.432Z,11.60
2022-08-26T16:11:14.576Z,12.70
2022-08-26T16:13:42.517Z,13.18
2022-08-26T16:16:10.850Z,13.23
2022-08-26T16:18:38.917Z,13.32
2022-08-26T16:21:13.371Z,13.30
2022-08-26T16:23:44.926Z,13.18
2022-08-26T16:26:18.209Z,12.63
2022-08-26T16:28:46.468Z,15.70
2022-08-26T16:31:14.529Z,12.00
2022-08-26T16:33:42.576Z,14.13
2022-08-26T16:36:10.928Z,16.67
2022-08-26T16:38:39.705Z,17.13
2022-08-26T16:41:08.167Z,13.60
2022-08-26T16:43:36.077Z,13.15
2022-08-26T16:46:07.135Z,14.60
2022-08-26T16:48:35.581Z,13.68
2022-08-26T16:51:03.592Z,12.48
2022-08-26T16:53:31.890Z,12.02
2022-08-26T16:55:59.821Z,14.80
2022-08-26T16:58:27.798Z,13.70
2022-08-26T17:00:55.810Z,14.23
2022-08-26T17:03:23.888Z,14.30
2022-08-26T17:05:52.010Z,13.50
2022-08-26T17:08:24.350Z,13.73
2022-08-26T17:10:57.479Z,14.27
2022-08-26T17:13:35.254Z,14.90
2022-08-26T17:16:05.502Z,12.93
2022-08-26T17:18:33.686Z,14.30
2022-08-26T17:21:03.444Z,14.30
2022-08-26T17:23:31.432Z,13.90
2022-08-26T17:25:59.632Z,12.23
2022-08-26T17:28:27.668Z,11.38
2022-08-26T17:30:57.411Z,12.23
2022-08-26T17:33:25.944Z,11.85
2022-08-26T17:35:54.338Z,13.10
2022-08-26T17:38:22.649Z,13.15
2022-08-26T17:40:50.747Z,12.07
2022-08-26T17:43:19.240Z,11.93
2022-08-26T17:45:47.225Z,10.38
2022-08-26T17:48:15.419Z,10.75
2022-08-26T17:50:45.473Z,11.93
2022-08-26T17:53:18.922Z,10.95
2022-08-26T17:55:48.340Z,13.40
2022-08-26T17:58:23.256Z,12.20
2022-08-26T18:00:52.808Z,11.13
2022-08-26T18:03:20.778Z,10.63
2022-08-26T18:05:50.030Z,11.30
2022-08-26T18:08:18.038Z,10.18
2022-08-26T18:10:45.974Z,10.30
2022-08-26T18:13:15.262Z,11.95
2022-08-26T18:15:44.177Z,12.45
2022-08-26T18:18:13.303Z,9.70
2022-08-26T18:20:42.504Z,9.82
2022-08-26T18:23:10.937Z,9.15
2022-08-26T18:25:43.005Z,10.15
2022-08-26T18:28:11.247Z,9.00
2022-08-26T18:30:39.524Z,9.45
2022-08-26T18:33:07.485Z,10.05
2022-08-26T18:35:39.322Z,8.27
2022-08-26T18:38:11.398Z,9.15
2022-08-26T18:40:41.124Z,9.30
2022-08-26T18:43:09.489Z,8.50
2022-08-26T18:45:37.523Z,8.80
2022-08-26T18:48:05.985Z,8.02
2022-08-26T18:50:34.194Z,9.25
2022-08-26T18:53:02.867Z,9.20
2022-08-26T18:55:30.691Z,7.97
2022-08-26T18:57:58.670Z,8.02
2022-08-26T19:00:28.891Z,9.55
2022-08-26T19:02:57.188Z,10.13
2022-08-26T19:05:25.905Z,8.15
2022-08-26T19:07:53.924Z,10.13
2022-08-26T19:10:21.970Z,10.02
2022-08-26T19:12:52.088Z,8.55
2022-08-26T19:15:20.333Z,9.73
2022-08-26T19:17:48.511Z,8.52
2022-08-26T19:20:17.151Z,8.35
2022-08-26T19:22:46.341Z,9.27
2022-08-26T19:25:14.582Z,8.40
2022-08-26T19:27:42.495Z,9.00
2022-08-26T19:30:11.003Z,7.63
2022-08-26T19:32:39.247Z,9.40
2022-08-26T19:35:08.682Z,10.13
2022-08-26T19:37:36.771Z,8.05
2022-08-26T19:40:05.397Z,7.97
2022-08-26T19:42:33.544Z,8.90
2022-08-26T19:45:24.370Z,8.30
2022-08-26T19:47:53.813Z,8.10
2022-08-26T19:50:22.619Z,9.80
2022-08-26T19:52:50.643Z,7.75
2022-08-26T19:55:19.308Z,7.95
2022-08-26T19:57:47.370Z,8.05
2022-08-26T20:00:18.265Z,7.35
2022-08-26T20:02:46.379Z,9.25
2022-08-26T20:05:15.041Z,7.57
2022-08-26T20:07:43.190Z,7.63
2022-08-26T20:10:13.913Z,7.97
2022-08-26T20:12:42.483Z,7.88
2022-08-26T20:15:12.237Z,8.63
2022-08-26T20:17:40.942Z,9.50
2022-08-26T20:20:33.285Z,9.57
2022-08-26T20:23:04.784Z,8.07
2022-08-26T20:25:33.781Z,10.13
2022-08-26T20:28:02.074Z,9.48
2022-08-26T20:30:30.122Z,9.13
2022-08-26T20:32:58.108Z,8.07
2022-08-26T20:35:26.172Z,8.93
2022-08-26T20:37:54.155Z,9.90
2022-08-26T20:40:22.780Z,9.88
2022-08-26T20:42:50.713Z,10.05
2022-08-26T20:45:18.699Z,9.15
2022-08-26T20:47:46.686Z,9.80
2022-08-26T20:50:14.597Z,8.77
2022-08-26T20:52:42.646Z,10.63
2022-08-26T20:55:11.000Z,9.85
2022-08-26T20:57:39.152Z,9.60
2022-08-26T21:00:08.106Z,10.10
2022-08-26T21:02:36.207Z,8.82
2022-08-26T21:05:04.981Z,7.43
2022-08-26T21:07:32.949Z,7.90
2022-08-26T21:10:01.099Z,7.85
2022-08-26T21:12:29.101Z,9.63
2022-08-26T21:14:57.114Z,9.63
2022-08-26T21:17:24.965Z,8.35
2022-08-26T21:19:52.918Z,8.40
2022-08-26T21:22:20.869Z,8.07
2022-08-26T21:24:49.243Z,8.82
2022-08-26T21:27:17.635Z,10.20
2022-08-26T21:29:54.962Z,7.78
2022-08-26T21:32:22.935Z,10.18
2022-08-26T21:34:50.890Z,9.48
2022-08-26T21:37:18.796Z,10.10
2022-08-26T21:39:46.956Z,10.25
2022-08-26T21:42:15.007Z,8.10
2022-08-26T21:44:44.997Z,8.45
2022-08-26T21:47:21.504Z,8.13
2022-08-26T21:49:49.584Z,9.50
2022-08-26T21:52:17.858Z,8.02
2022-08-26T21:54:49.334Z,10.50
2022-08-26T21:57:17.638Z,7.78
2022-08-26T21:59:45.620Z,8.63
2022-08-26T22:02:13.800Z,9.23
2022-08-26T22:04:44.596Z,8.90
2022-08-26T22:07:17.691Z,9.80
2022-08-26T22:09:45.604Z,9.30
2022-08-26T22:12:14.782Z,10.68
2022-08-26T22:14:43.204Z,9.38
2022-08-26T22:17:11.211Z,9.05
2022-08-26T22:19:46.396Z,9.15
2022-08-26T22:22:15.448Z,8.45
2022-08-26T22:24:43.919Z,8.98
2022-08-26T22:27:12.316Z,10.25
2022-08-26T22:29:40.804Z,9.32
2022-08-26T22:32:08.797Z,8.68
2022-08-26T22:34:36.826Z,8.38
2022-08-26T22:37:04.809Z,10.80
2022-08-26T22:39:32.813Z,7.95
2022-08-26T22:42:01.425Z,8.65
2022-08-26T22:44:29.407Z,7.57
2022-08-26T22:46:57.498Z,8.23
2022-08-26T22:49:25.432Z,8.77
2022-08-26T22:51:53.454Z,8.70
2022-08-26T22:54:21.682Z,8.35
2022-08-26T22:56:49.613Z,8.13
2022-08-26T22:59:18.212Z,9.93
2022-08-26T23:01:47.636Z,9.43
2022-08-26T23:04:15.585Z,8.10
2022-08-26T23:06:47.546Z,7.78
2022-08-26T23:09:18.344Z,10.95
2022-08-26T23:11:47.146Z,10.15
2022-08-26T23:14:15.203Z,12.07
2022-08-26T23:16:43.158Z,8.55
2022-08-26T23:19:12.025Z,9.07
2022-08-26T23:21:40.570Z,9.48
2022-08-26T23:24:09.083Z,9.15
2022-08-26T23:26:37.259Z,8.05
2022-08-26T23:29:05.969Z,10.20
2022-08-26T23:31:34.425Z,10.60
2022-08-26T23:34:20.951Z,8.48
2022-08-26T23:36:49.247Z,10.07
2022-08-26T23:39:17.019Z,9.50
2022-08-26T23:41:44.890Z,10.05
2022-08-26T23:44:13.172Z,8.68
2022-08-26T23:46:41.100Z,9.52
2022-08-26T23:49:09.071Z,8.73
2022-08-26T23:51:55.451Z,8.52
2022-08-26T23:54:23.456Z,8.43
2022-08-26T23:56:51.223Z,8.90
2022-08-26T23:59:19.123Z,8.77
